sensor_id;sensor_type;location;lat;lon;timestamp;temperature;humidity
15900;DHT22;8048;50.644;6.184;2023-04-25T00:01:21;6.80;99.90
15900;DHT22;8048;50.644;6.184;2023-04-25T00:03:48;6.80;99.90
15900;DHT22;8048;50.644;6.184;2023-04-25T00:06:14;6.80;99.90
15900;DHT22;8048;50.644;6.184;2023-04-25T00:08:40;6.70;99.90
15900;DHT22;8048;50.644;6.184;2023-04-25T00:11:05;6.70;99.90
15900;DHT22;8048;50.644;6.184;2023-04-25T00:13:31;6.70;99.90
15900;DHT22;8048;50.644;6.184;2023-04-25T00:15:56;6.70;99.90
15900;DHT22;8048;50.644;6.184;2023-04-25T00:18:23;6.60;99.90
15900;DHT22;8048;50.644;6.184;2023-04-25T00:20:49;6.60;99.90
15900;DHT22;8048;50.644;6.184;2023-04-25T00:23:16;6.60;99.90
15900;DHT22;8048;50.644;6.184;2023-04-25T00:25:47;6.60;99.90
15900;DHT22;8048;50.644;6.184;2023-04-25T00:28:13;6.60;99.90
15900;DHT22;8048;50.644;6.184;2023-04-25T00:30:39;6.60;99.90
15900;DHT22;8048;50.644;6.184;2023-04-25T00:33:05;6.60;99.90
15900;DHT22;8048;50.644;6.184;2023-04-25T00:35:31;6.60;99.90
15900;DHT22;8048;50.644;6.184;2023-04-25T00:37:57;6.60;99.90
15900;DHT22;8048;50.644;6.184;2023-04-25T00:40:22;6.60;99.90
15900;DHT22;8048;50.644;6.184;2023-04-25T00:42:49;6.60;99.90
15900;DHT22;8048;50.644;6.184;2023-04-25T00:45:15;6.50;99.90
15900;DHT22;8048;50.644;6.184;2023-04-25T00:47:41;6.50;99.90
15900;DHT22;8048;50.644;6.184;2023-04-25T00:50:07;6.50;99.90
15900;DHT22;8048;50.644;6.184;2023-04-25T00:52:33;6.50;99.90
15900;DHT22;8048;50.644;6.184;2023-04-25T00:54:59;6.50;99.90
15900;DHT22;8048;50.644;6.184;2023-04-25T00:57:25;6.50;99.90
15900;DHT22;8048;50.644;6.184;2023-04-25T00:59:51;6.50;99.90
15900;DHT22;8048;50.644;6.184;2023-04-25T01:02:18;6.50;99.90
15900;DHT22;8048;50.644;6.184;2023-04-25T01:04:44;6.50;99.90
15900;DHT22;8048;50.644;6.184;2023-04-25T01:07:10;6.50;99.90
15900;DHT22;8048;50.644;6.184;2023-04-25T01:09:35;6.50;99.90
15900;DHT22;8048;50.644;6.184;2023-04-25T01:12:01;6.50;99.90
15900;DHT22;8048;50.644;6.184;2023-04-25T01:14:28;6.50;99.90
15900;DHT22;8048;50.644;6.184;2023-04-25T01:16:54;6.50;99.90
15900;DHT22;8048;50.644;6.184;2023-04-25T01:19:20;6.50;99.90
15900;DHT22;8048;50.644;6.184;2023-04-25T01:21:46;6.50;99.90
15900;DHT22;8048;50.644;6.184;2023-04-25T01:24:12;6.50;99.90
15900;DHT22;8048;50.644;6.184;2023-04-25T01:26:38;6.50;99.90
15900;DHT22;8048;50.644;6.184;2023-04-25T01:29:07;6.50;99.90
15900;DHT22;8048;50.644;6.184;2023-04-25T01:31:33;6.40;99.90
15900;DHT22;8048;50.644;6.184;2023-04-25T01:33:59;6.40;99.90
15900;DHT22;8048;50.644;6.184;2023-04-25T01:36:25;6.40;99.90
15900;DHT22;8048;50.644;6.184;2023-04-25T01:38:52;6.40;99.90
15900;DHT22;8048;50.644;6.184;2023-04-25T01:41:18;6.40;99.90
15900;DHT22;8048;50.644;6.184;2023-04-25T01:43:44;6.40;99.90
15900;DHT22;8048;50.644;6.184;2023-04-25T01:46:11;6.40;99.90
15900;DHT22;8048;50.644;6.184;2023-04-25T01:48:37;6.40;99.90
15900;DHT22;8048;50.644;6.184;2023-04-25T01:51:02;6.40;99.90
15900;DHT22;8048;50.644;6.184;2023-04-25T01:53:28;6.40;99.90
15900;DHT22;8048;50.644;6.184;2023-04-25T01:55:54;6.40;99.90
15900;DHT22;8048;50.644;6.184;2023-04-25T01:58:20;6.40;99.90
15900;DHT22;8048;50.644;6.184;2023-04-25T02:00:46;6.40;99.90
15900;DHT22;8048;50.644;6.184;2023-04-25T02:03:11;6.40;99.90
15900;DHT22;8048;50.644;6.184;2023-04-25T02:05:38;6.40;99.90
15900;DHT22;8048;50.644;6.184;2023-04-25T02:08:06;6.40;99.90
15900;DHT22;8048;50.644;6.184;2023-04-25T02:10:32;6.40;99.90
15900;DHT22;8048;50.644;6.184;2023-04-25T02:12:58;6.40;99.90
15900;DHT22;8048;50.644;6.184;2023-04-25T02:15:24;6.40;99.90
15900;DHT22;8048;50.644;6.184;2023-04-25T02:17:49;6.40;99.90
15900;DHT22;8048;50.644;6.184;2023-04-25T02:20:15;6.40;99.90
15900;DHT22;8048;50.644;6.184;2023-04-25T02:22:46;6.40;99.90
15900;DHT22;8048;50.644;6.184;2023-04-25T02:25:12;6.40;99.90
15900;DHT22;8048;50.644;6.184;2023-04-25T02:27:38;6.40;99.90
15900;DHT22;8048;50.644;6.184;2023-04-25T02:30:04;6.30;99.90
15900;DHT22;8048;50.644;6.184;2023-04-25T02:32:32;6.40;99.90
15900;DHT22;8048;50.644;6.184;2023-04-25T02:34:57;6.40;99.90
15900;DHT22;8048;50.644;6.184;2023-04-25T02:37:32;6.40;99.90
15900;DHT22;8048;50.644;6.184;2023-04-25T02:39:57;6.30;99.90
15900;DHT22;8048;50.644;6.184;2023-04-25T02:42:23;6.30;99.90
15900;DHT22;8048;50.644;6.184;2023-04-25T02:44:48;6.30;99.90
15900;DHT22;8048;50.644;6.184;2023-04-25T02:47:14;6.30;99.90
15900;DHT22;8048;50.644;6.184;2023-04-25T02:49:40;6.30;99.90
15900;DHT22;8048;50.644;6.184;2023-04-25T02:52:05;6.30;99.90
15900;DHT22;8048;50.644;6.184;2023-04-25T02:54:31;6.30;99.90
15900;DHT22;8048;50.644;6.184;2023-04-25T02:56:57;6.30;99.90
15900;DHT22;8048;50.644;6.184;2023-04-25T02:59:22;6.30;99.90
15900;DHT22;8048;50.644;6.184;2023-04-25T03:01:48;6.30;99.90
15900;DHT22;8048;50.644;6.184;2023-04-25T03:04:13;6.30;99.90
15900;DHT22;8048;50.644;6.184;2023-04-25T03:06:39;6.30;99.90
15900;DHT22;8048;50.644;6.184;2023-04-25T03:09:05;6.30;99.90
15900;DHT22;8048;50.644;6.184;2023-04-25T03:11:30;6.30;99.90
15900;DHT22;8048;50.644;6.184;2023-04-25T03:13:56;6.20;99.90
15900;DHT22;8048;50.644;6.184;2023-04-25T03:16:22;6.20;99.90
15900;DHT22;8048;50.644;6.184;2023-04-25T03:18:47;6.20;99.90
15900;DHT22;8048;50.644;6.184;2023-04-25T03:21:13;6.20;99.90
15900;DHT22;8048;50.644;6.184;2023-04-25T03:23:38;6.20;99.90
15900;DHT22;8048;50.644;6.184;2023-04-25T03:26:04;6.20;99.90
15900;DHT22;8048;50.644;6.184;2023-04-25T03:28:29;6.20;99.90
15900;DHT22;8048;50.644;6.184;2023-04-25T03:30:55;6.10;99.90
15900;DHT22;8048;50.644;6.184;2023-04-25T03:33:20;6.20;99.90
15900;DHT22;8048;50.644;6.184;2023-04-25T03:35:46;6.10;99.90
15900;DHT22;8048;50.644;6.184;2023-04-25T03:38:11;6.20;99.90
15900;DHT22;8048;50.644;6.184;2023-04-25T03:40:37;6.20;99.90
15900;DHT22;8048;50.644;6.184;2023-04-25T03:43:02;6.20;99.90
15900;DHT22;8048;50.644;6.184;2023-04-25T03:45:28;6.20;99.90
15900;DHT22;8048;50.644;6.184;2023-04-25T03:47:53;6.20;99.90
15900;DHT22;8048;50.644;6.184;2023-04-25T03:50:19;6.20;99.90
15900;DHT22;8048;50.644;6.184;2023-04-25T03:52:45;6.20;99.90
15900;DHT22;8048;50.644;6.184;2023-04-25T03:55:10;6.20;99.90
15900;DHT22;8048;50.644;6.184;2023-04-25T03:57:36;6.20;99.90
15900;DHT22;8048;50.644;6.184;2023-04-25T04:00:02;6.20;99.90
15900;DHT22;8048;50.644;6.184;2023-04-25T04:02:28;6.10;99.90
15900;DHT22;8048;50.644;6.184;2023-04-25T04:04:54;6.10;99.90
15900;DHT22;8048;50.644;6.184;2023-04-25T04:07:21;6.10;99.90
15900;DHT22;8048;50.644;6.184;2023-04-25T04:09:46;6.10;99.90
15900;DHT22;8048;50.644;6.184;2023-04-25T04:12:12;6.10;99.90
15900;DHT22;8048;50.644;6.184;2023-04-25T04:14:37;6.10;99.90
15900;DHT22;8048;50.644;6.184;2023-04-25T04:17:03;6.10;99.90
15900;DHT22;8048;50.644;6.184;2023-04-25T04:19:28;6.10;99.90
15900;DHT22;8048;50.644;6.184;2023-04-25T04:21:54;6.10;99.90
15900;DHT22;8048;50.644;6.184;2023-04-25T04:24:19;6.10;99.90
15900;DHT22;8048;50.644;6.184;2023-04-25T04:26:45;6.10;99.90
15900;DHT22;8048;50.644;6.184;2023-04-25T04:29:11;6.10;99.90
15900;DHT22;8048;50.644;6.184;2023-04-25T04:31:36;6.10;99.90
15900;DHT22;8048;50.644;6.184;2023-04-25T04:34:02;6.10;99.90
15900;DHT22;8048;50.644;6.184;2023-04-25T04:36:29;6.10;99.90
15900;DHT22;8048;50.644;6.184;2023-04-25T04:38:54;6.10;99.90
15900;DHT22;8048;50.644;6.184;2023-04-25T04:41:22;6.10;99.90
15900;DHT22;8048;50.644;6.184;2023-04-25T04:43:47;6.10;99.90
15900;DHT22;8048;50.644;6.184;2023-04-25T04:46:13;6.10;99.90
15900;DHT22;8048;50.644;6.184;2023-04-25T04:48:38;6.10;99.90
15900;DHT22;8048;50.644;6.184;2023-04-25T04:51:06;6.10;99.90
15900;DHT22;8048;50.644;6.184;2023-04-25T04:53:32;6.10;99.90
15900;DHT22;8048;50.644;6.184;2023-04-25T04:55:57;6.10;99.90
15900;DHT22;8048;50.644;6.184;2023-04-25T04:58:23;6.10;99.90
15900;DHT22;8048;50.644;6.184;2023-04-25T05:00:49;6.10;99.90
15900;DHT22;8048;50.644;6.184;2023-04-25T05:03:14;6.10;99.90
15900;DHT22;8048;50.644;6.184;2023-04-25T05:05:41;6.10;99.90
15900;DHT22;8048;50.644;6.184;2023-04-25T05:08:07;6.10;99.90
15900;DHT22;8048;50.644;6.184;2023-04-25T05:10:32;6.00;99.90
15900;DHT22;8048;50.644;6.184;2023-04-25T05:12:58;6.10;99.90
15900;DHT22;8048;50.644;6.184;2023-04-25T05:15:23;6.00;99.90
15900;DHT22;8048;50.644;6.184;2023-04-25T05:17:49;6.00;99.90
15900;DHT22;8048;50.644;6.184;2023-04-25T05:20:14;6.00;99.90
15900;DHT22;8048;50.644;6.184;2023-04-25T05:22:40;6.00;99.90
15900;DHT22;8048;50.644;6.184;2023-04-25T05:25:08;6.10;99.90
15900;DHT22;8048;50.644;6.184;2023-04-25T05:27:34;6.10;99.90
15900;DHT22;8048;50.644;6.184;2023-04-25T05:29:59;6.10;99.90
15900;DHT22;8048;50.644;6.184;2023-04-25T05:32:26;6.10;99.90
15900;DHT22;8048;50.644;6.184;2023-04-25T05:34:52;6.10;99.90
15900;DHT22;8048;50.644;6.184;2023-04-25T05:37:17;6.10;99.90
15900;DHT22;8048;50.644;6.184;2023-04-25T05:39:43;6.10;99.90
15900;DHT22;8048;50.644;6.184;2023-04-25T05:42:08;6.10;99.90
15900;DHT22;8048;50.644;6.184;2023-04-25T05:44:34;6.10;99.90
15900;DHT22;8048;50.644;6.184;2023-04-25T05:46:59;6.10;99.90
15900;DHT22;8048;50.644;6.184;2023-04-25T05:49:25;6.10;99.90
15900;DHT22;8048;50.644;6.184;2023-04-25T05:51:51;6.10;99.90
15900;DHT22;8048;50.644;6.184;2023-04-25T05:54:16;6.10;99.90
15900;DHT22;8048;50.644;6.184;2023-04-25T05:56:42;6.20;99.90
15900;DHT22;8048;50.644;6.184;2023-04-25T05:59:07;6.20;99.90
15900;DHT22;8048;50.644;6.184;2023-04-25T06:01:33;6.10;99.90
15900;DHT22;8048;50.644;6.184;2023-04-25T06:03:58;6.10;99.90
15900;DHT22;8048;50.644;6.184;2023-04-25T06:06:24;6.10;99.90
15900;DHT22;8048;50.644;6.184;2023-04-25T06:08:49;6.20;99.90
15900;DHT22;8048;50.644;6.184;2023-04-25T06:11:15;6.10;99.90
15900;DHT22;8048;50.644;6.184;2023-04-25T06:13:41;6.10;99.90
15900;DHT22;8048;50.644;6.184;2023-04-25T06:16:06;6.10;99.90
15900;DHT22;8048;50.644;6.184;2023-04-25T06:18:32;6.00;99.90
15900;DHT22;8048;50.644;6.184;2023-04-25T06:20:58;6.00;99.90
15900;DHT22;8048;50.644;6.184;2023-04-25T06:23:23;6.10;99.90
15900;DHT22;8048;50.644;6.184;2023-04-25T06:25:49;6.20;99.90
15900;DHT22;8048;50.644;6.184;2023-04-25T06:28:14;6.20;99.90
15900;DHT22;8048;50.644;6.184;2023-04-25T06:30:40;6.20;99.90
15900;DHT22;8048;50.644;6.184;2023-04-25T06:33:06;6.30;99.90
15900;DHT22;8048;50.644;6.184;2023-04-25T06:35:34;6.30;99.90
15900;DHT22;8048;50.644;6.184;2023-04-25T06:37:59;6.40;99.90
15900;DHT22;8048;50.644;6.184;2023-04-25T06:40:25;6.40;99.90
15900;DHT22;8048;50.644;6.184;2023-04-25T06:42:50;6.50;99.90
15900;DHT22;8048;50.644;6.184;2023-04-25T06:45:16;6.50;99.90
15900;DHT22;8048;50.644;6.184;2023-04-25T06:47:41;6.50;99.90
15900;DHT22;8048;50.644;6.184;2023-04-25T06:50:07;6.50;99.90
15900;DHT22;8048;50.644;6.184;2023-04-25T06:52:33;6.50;99.90
15900;DHT22;8048;50.644;6.184;2023-04-25T06:54:58;6.60;99.90
15900;DHT22;8048;50.644;6.184;2023-04-25T06:57:24;6.60;99.90
15900;DHT22;8048;50.644;6.184;2023-04-25T06:59:49;6.70;99.90
15900;DHT22;8048;50.644;6.184;2023-04-25T07:02:15;6.80;99.90
15900;DHT22;8048;50.644;6.184;2023-04-25T07:04:40;6.90;99.90
15900;DHT22;8048;50.644;6.184;2023-04-25T07:07:06;6.90;99.90
15900;DHT22;8048;50.644;6.184;2023-04-25T07:09:31;6.80;99.90
15900;DHT22;8048;50.644;6.184;2023-04-25T07:11:59;6.80;99.90
15900;DHT22;8048;50.644;6.184;2023-04-25T07:14:26;6.80;99.90
15900;DHT22;8048;50.644;6.184;2023-04-25T07:16:52;6.80;99.90
15900;DHT22;8048;50.644;6.184;2023-04-25T07:19:17;6.80;99.90
15900;DHT22;8048;50.644;6.184;2023-04-25T07:21:43;6.90;99.90
15900;DHT22;8048;50.644;6.184;2023-04-25T07:24:08;7.00;99.90
15900;DHT22;8048;50.644;6.184;2023-04-25T07:26:34;7.00;99.90
15900;DHT22;8048;50.644;6.184;2023-04-25T07:28:59;7.10;99.90
15900;DHT22;8048;50.644;6.184;2023-04-25T07:31:25;7.10;99.90
15900;DHT22;8048;50.644;6.184;2023-04-25T07:33:50;7.30;99.90
15900;DHT22;8048;50.644;6.184;2023-04-25T07:36:16;7.30;99.90
15900;DHT22;8048;50.644;6.184;2023-04-25T07:38:42;7.40;99.90
15900;DHT22;8048;50.644;6.184;2023-04-25T07:41:07;7.40;99.90
15900;DHT22;8048;50.644;6.184;2023-04-25T07:43:33;7.50;99.90
15900;DHT22;8048;50.644;6.184;2023-04-25T07:45:58;7.50;99.90
15900;DHT22;8048;50.644;6.184;2023-04-25T07:48:24;7.50;99.90
15900;DHT22;8048;50.644;6.184;2023-04-25T07:50:49;7.50;99.90
15900;DHT22;8048;50.644;6.184;2023-04-25T07:53:15;7.50;99.70
15900;DHT22;8048;50.644;6.184;2023-04-25T07:55:41;7.50;99.90
15900;DHT22;8048;50.644;6.184;2023-04-25T07:58:07;7.50;99.90
15900;DHT22;8048;50.644;6.184;2023-04-25T08:00:33;7.60;99.90
15900;DHT22;8048;50.644;6.184;2023-04-25T08:02:59;7.60;99.90
15900;DHT22;8048;50.644;6.184;2023-04-25T08:05:24;7.60;99.90
15900;DHT22;8048;50.644;6.184;2023-04-25T08:07:50;7.70;99.70
15900;DHT22;8048;50.644;6.184;2023-04-25T08:10:16;7.70;99.90
15900;DHT22;8048;50.644;6.184;2023-04-25T08:12:41;7.70;99.80
15900;DHT22;8048;50.644;6.184;2023-04-25T08:15:08;7.70;99.90
15900;DHT22;8048;50.644;6.184;2023-04-25T08:17:33;7.70;99.90
15900;DHT22;8048;50.644;6.184;2023-04-25T08:19:59;7.70;99.90
15900;DHT22;8048;50.644;6.184;2023-04-25T08:22:24;7.70;99.90
15900;DHT22;8048;50.644;6.184;2023-04-25T08:24:50;7.60;99.90
15900;DHT22;8048;50.644;6.184;2023-04-25T08:27:16;7.50;99.90
15900;DHT22;8048;50.644;6.184;2023-04-25T08:29:42;7.50;99.80
15900;DHT22;8048;50.644;6.184;2023-04-25T08:32:08;7.40;99.90
15900;DHT22;8048;50.644;6.184;2023-04-25T08:34:33;7.30;99.00
15900;DHT22;8048;50.644;6.184;2023-04-25T08:36:59;7.30;99.20
15900;DHT22;8048;50.644;6.184;2023-04-25T08:39:24;7.20;99.50
15900;DHT22;8048;50.644;6.184;2023-04-25T08:41:50;7.20;99.40
15900;DHT22;8048;50.644;6.184;2023-04-25T08:44:16;7.20;99.70
15900;DHT22;8048;50.644;6.184;2023-04-25T08:46:45;7.20;99.80
15900;DHT22;8048;50.644;6.184;2023-04-25T08:49:14;7.20;99.90
15900;DHT22;8048;50.644;6.184;2023-04-25T08:51:46;7.20;99.90
15900;DHT22;8048;50.644;6.184;2023-04-25T08:54:13;7.30;99.90
15900;DHT22;8048;50.644;6.184;2023-04-25T08:56:44;7.40;99.90
15900;DHT22;8048;50.644;6.184;2023-04-25T08:59:11;7.50;99.80
15900;DHT22;8048;50.644;6.184;2023-04-25T09:01:37;7.50;99.90
15900;DHT22;8048;50.644;6.184;2023-04-25T09:04:02;7.70;99.90
15900;DHT22;8048;50.644;6.184;2023-04-25T09:06:29;7.90;99.90
15900;DHT22;8048;50.644;6.184;2023-04-25T09:09:01;8.00;99.90
15900;DHT22;8048;50.644;6.184;2023-04-25T09:11:27;8.00;97.60
15900;DHT22;8048;50.644;6.184;2023-04-25T09:14:13;8.10;97.20
15900;DHT22;8048;50.644;6.184;2023-04-25T09:17:00;8.20;99.30
15900;DHT22;8048;50.644;6.184;2023-04-25T09:19:34;8.60;99.90
15900;DHT22;8048;50.644;6.184;2023-04-25T09:22:05;8.90;98.70
15900;DHT22;8048;50.644;6.184;2023-04-25T09:27:03;9.40;95.70
15900;DHT22;8048;50.644;6.184;2023-04-25T09:29:30;9.80;97.70
15900;DHT22;8048;50.644;6.184;2023-04-25T09:32:22;9.90;96.00
15900;DHT22;8048;50.644;6.184;2023-04-25T09:34:55;10.10;95.40
15900;DHT22;8048;50.644;6.184;2023-04-25T09:37:26;10.10;93.50
15900;DHT22;8048;50.644;6.184;2023-04-25T09:39:59;10.20;94.10
15900;DHT22;8048;50.644;6.184;2023-04-25T09:42:31;10.10;93.90
15900;DHT22;8048;50.644;6.184;2023-04-25T09:44:58;9.90;93.50
15900;DHT22;8048;50.644;6.184;2023-04-25T09:47:25;9.80;93.40
15900;DHT22;8048;50.644;6.184;2023-04-25T09:49:52;9.70;94.30
15900;DHT22;8048;50.644;6.184;2023-04-25T09:52:20;9.50;94.10
15900;DHT22;8048;50.644;6.184;2023-04-25T09:54:46;9.30;95.00
15900;DHT22;8048;50.644;6.184;2023-04-25T09:59:47;9.10;94.70
15900;DHT22;8048;50.644;6.184;2023-04-25T10:02:15;8.90;93.90
15900;DHT22;8048;50.644;6.184;2023-04-25T10:04:41;8.90;94.60
15900;DHT22;8048;50.644;6.184;2023-04-25T10:07:08;8.80;95.20
15900;DHT22;8048;50.644;6.184;2023-04-25T10:09:37;8.90;96.00
15900;DHT22;8048;50.644;6.184;2023-04-25T10:12:03;9.00;96.60
15900;DHT22;8048;50.644;6.184;2023-04-25T10:14:32;9.10;95.90
15900;DHT22;8048;50.644;6.184;2023-04-25T10:16:58;9.10;94.80
15900;DHT22;8048;50.644;6.184;2023-04-25T10:19:25;9.10;96.00
15900;DHT22;8048;50.644;6.184;2023-04-25T10:24:38;9.00;95.20
15900;DHT22;8048;50.644;6.184;2023-04-25T10:27:05;9.00;95.30
15900;DHT22;8048;50.644;6.184;2023-04-25T10:29:31;9.00;95.90
15900;DHT22;8048;50.644;6.184;2023-04-25T10:31:56;9.00;95.60
15900;DHT22;8048;50.644;6.184;2023-04-25T10:34:41;9.10;96.00
15900;DHT22;8048;50.644;6.184;2023-04-25T10:37:10;9.10;94.50
15900;DHT22;8048;50.644;6.184;2023-04-25T10:39:41;9.00;94.90
15900;DHT22;8048;50.644;6.184;2023-04-25T10:42:07;9.00;95.40
15900;DHT22;8048;50.644;6.184;2023-04-25T10:44:33;9.00;95.50
15900;DHT22;8048;50.644;6.184;2023-04-25T10:47:01;8.90;95.00
15900;DHT22;8048;50.644;6.184;2023-04-25T10:52:15;8.80;94.30
15900;DHT22;8048;50.644;6.184;2023-04-25T10:54:55;8.70;95.20
15900;DHT22;8048;50.644;6.184;2023-04-25T10:57:37;8.70;95.80
15900;DHT22;8048;50.644;6.184;2023-04-25T11:00:15;8.60;95.90
15900;DHT22;8048;50.644;6.184;2023-04-25T11:05:35;8.60;96.50
15900;DHT22;8048;50.644;6.184;2023-04-25T11:08:02;8.80;97.80
15900;DHT22;8048;50.644;6.184;2023-04-25T11:10:32;9.00;96.40
15900;DHT22;8048;50.644;6.184;2023-04-25T11:13:00;9.50;98.20
15900;DHT22;8048;50.644;6.184;2023-04-25T11:15:26;9.90;96.20
15900;DHT22;8048;50.644;6.184;2023-04-25T11:17:53;10.40;94.20
15900;DHT22;8048;50.644;6.184;2023-04-25T11:20:19;11.00;95.80
15900;DHT22;8048;50.644;6.184;2023-04-25T11:22:46;11.20;95.20
15900;DHT22;8048;50.644;6.184;2023-04-25T11:25:13;11.30;92.10
15900;DHT22;8048;50.644;6.184;2023-04-25T11:27:57;11.10;91.50
15900;DHT22;8048;50.644;6.184;2023-04-25T11:30:24;10.90;92.50
15900;DHT22;8048;50.644;6.184;2023-04-25T11:32:50;11.30;94.90
15900;DHT22;8048;50.644;6.184;2023-04-25T11:35:18;12.10;98.00
15900;DHT22;8048;50.644;6.184;2023-04-25T11:37:44;12.60;92.70
15900;DHT22;8048;50.644;6.184;2023-04-25T11:40:10;12.90;91.90
15900;DHT22;8048;50.644;6.184;2023-04-25T11:42:43;12.80;91.10
15900;DHT22;8048;50.644;6.184;2023-04-25T11:45:09;12.60;88.50
15900;DHT22;8048;50.644;6.184;2023-04-25T11:47:35;12.50;90.80
15900;DHT22;8048;50.644;6.184;2023-04-25T11:50:02;12.70;91.80
15900;DHT22;8048;50.644;6.184;2023-04-25T11:52:47;12.50;87.90
15900;DHT22;8048;50.644;6.184;2023-04-25T11:55:14;12.40;90.10
15900;DHT22;8048;50.644;6.184;2023-04-25T11:57:41;12.20;90.20
15900;DHT22;8048;50.644;6.184;2023-04-25T12:02:35;11.70;88.40
15900;DHT22;8048;50.644;6.184;2023-04-25T12:05:01;11.60;90.00
15900;DHT22;8048;50.644;6.184;2023-04-25T12:07:31;11.40;89.20
15900;DHT22;8048;50.644;6.184;2023-04-25T12:09:57;11.10;88.20
15900;DHT22;8048;50.644;6.184;2023-04-25T12:12:27;10.90;90.60
15900;DHT22;8048;50.644;6.184;2023-04-25T12:14:53;10.60;89.10
15900;DHT22;8048;50.644;6.184;2023-04-25T12:17:20;10.60;91.00
15900;DHT22;8048;50.644;6.184;2023-04-25T12:19:46;10.40;90.60
15900;DHT22;8048;50.644;6.184;2023-04-25T12:22:23;10.30;91.90
15900;DHT22;8048;50.644;6.184;2023-04-25T12:24:48;10.20;91.40
15900;DHT22;8048;50.644;6.184;2023-04-25T12:27:16;10.00;91.50
15900;DHT22;8048;50.644;6.184;2023-04-25T12:29:50;9.80;92.30
15900;DHT22;8048;50.644;6.184;2023-04-25T12:32:16;9.80;94.10
15900;DHT22;8048;50.644;6.184;2023-04-25T12:34:43;9.80;92.90
15900;DHT22;8048;50.644;6.184;2023-04-25T12:37:09;9.90;93.10
15900;DHT22;8048;50.644;6.184;2023-04-25T12:39:34;9.90;93.10
15900;DHT22;8048;50.644;6.184;2023-04-25T12:42:00;10.00;92.40
15900;DHT22;8048;50.644;6.184;2023-04-25T12:44:26;10.00;91.70
15900;DHT22;8048;50.644;6.184;2023-04-25T12:46:52;10.10;91.60
15900;DHT22;8048;50.644;6.184;2023-04-25T12:49:18;10.20;92.00
15900;DHT22;8048;50.644;6.184;2023-04-25T12:51:43;10.40;91.70
15900;DHT22;8048;50.644;6.184;2023-04-25T12:54:09;10.60;91.00
15900;DHT22;8048;50.644;6.184;2023-04-25T12:56:35;10.80;91.20
15900;DHT22;8048;50.644;6.184;2023-04-25T12:59:01;10.90;90.70
15900;DHT22;8048;50.644;6.184;2023-04-25T13:01:28;11.30;92.60
15900;DHT22;8048;50.644;6.184;2023-04-25T13:03:54;11.60;88.80
15900;DHT22;8048;50.644;6.184;2023-04-25T13:06:20;11.90;92.10
15900;DHT22;8048;50.644;6.184;2023-04-25T13:08:46;12.20;90.40
15900;DHT22;8048;50.644;6.184;2023-04-25T13:11:11;12.90;92.50
15900;DHT22;8048;50.644;6.184;2023-04-25T13:13:37;13.40;87.00
15900;DHT22;8048;50.644;6.184;2023-04-25T13:16:04;14.20;91.20
15900;DHT22;8048;50.644;6.184;2023-04-25T13:18:30;14.50;80.90
15900;DHT22;8048;50.644;6.184;2023-04-25T13:20:57;14.30;82.40
15900;DHT22;8048;50.644;6.184;2023-04-25T13:23:24;14.00;82.20
15900;DHT22;8048;50.644;6.184;2023-04-25T13:25:50;13.60;79.70
15900;DHT22;8048;50.644;6.184;2023-04-25T13:28:15;13.30;79.60
15900;DHT22;8048;50.644;6.184;2023-04-25T13:30:43;13.00;76.20
15900;DHT22;8048;50.644;6.184;2023-04-25T13:33:08;12.70;78.40
15900;DHT22;8048;50.644;6.184;2023-04-25T13:35:35;12.40;72.60
15900;DHT22;8048;50.644;6.184;2023-04-25T13:38:01;12.20;73.30
15900;DHT22;8048;50.644;6.184;2023-04-25T13:40:27;12.60;84.30
15900;DHT22;8048;50.644;6.184;2023-04-25T13:42:53;12.80;80.60
15900;DHT22;8048;50.644;6.184;2023-04-25T13:45:19;12.90;76.30
15900;DHT22;8048;50.644;6.184;2023-04-25T13:47:44;12.90;77.70
15900;DHT22;8048;50.644;6.184;2023-04-25T13:50:10;13.30;84.70
15900;DHT22;8048;50.644;6.184;2023-04-25T13:52:36;13.90;79.10
15900;DHT22;8048;50.644;6.184;2023-04-25T13:55:01;14.50;83.80
15900;DHT22;8048;50.644;6.184;2023-04-25T13:57:32;14.70;76.30
15900;DHT22;8048;50.644;6.184;2023-04-25T13:59:57;14.70;76.50
15900;DHT22;8048;50.644;6.184;2023-04-25T14:02:23;14.60;67.90
15900;DHT22;8048;50.644;6.184;2023-04-25T14:04:48;14.30;68.20
15900;DHT22;8048;50.644;6.184;2023-04-25T14:07:15;13.90;70.30
15900;DHT22;8048;50.644;6.184;2023-04-25T14:09:41;13.70;72.60
15900;DHT22;8048;50.644;6.184;2023-04-25T14:12:07;13.40;68.40
15900;DHT22;8048;50.644;6.184;2023-04-25T14:14:33;13.30;68.40
15900;DHT22;8048;50.644;6.184;2023-04-25T14:16:58;13.00;70.90
15900;DHT22;8048;50.644;6.184;2023-04-25T14:19:24;12.60;66.70
15900;DHT22;8048;50.644;6.184;2023-04-25T14:21:50;12.50;70.80
15900;DHT22;8048;50.644;6.184;2023-04-25T14:24:15;12.40;71.00
15900;DHT22;8048;50.644;6.184;2023-04-25T14:26:41;12.30;76.10
15900;DHT22;8048;50.644;6.184;2023-04-25T14:29:09;12.00;75.30
15900;DHT22;8048;50.644;6.184;2023-04-25T14:31:37;11.70;77.40
15900;DHT22;8048;50.644;6.184;2023-04-25T14:34:04;11.40;78.30
15900;DHT22;8048;50.644;6.184;2023-04-25T14:36:31;11.20;79.60
15900;DHT22;8048;50.644;6.184;2023-04-25T14:38:57;11.10;82.40
15900;DHT22;8048;50.644;6.184;2023-04-25T14:41:23;11.00;84.70
15900;DHT22;8048;50.644;6.184;2023-04-25T14:43:48;10.90;84.40
15900;DHT22;8048;50.644;6.184;2023-04-25T14:46:14;10.80;84.40
15900;DHT22;8048;50.644;6.184;2023-04-25T14:48:40;10.90;86.90
15900;DHT22;8048;50.644;6.184;2023-04-25T14:51:05;10.90;88.20
15900;DHT22;8048;50.644;6.184;2023-04-25T14:53:31;11.00;87.20
15900;DHT22;8048;50.644;6.184;2023-04-25T14:55:57;11.20;87.40
15900;DHT22;8048;50.644;6.184;2023-04-25T14:58:23;11.30;85.80
15900;DHT22;8048;50.644;6.184;2023-04-25T15:00:49;11.30;84.00
15900;DHT22;8048;50.644;6.184;2023-04-25T15:03:14;11.30;83.30
15900;DHT22;8048;50.644;6.184;2023-04-25T15:05:41;11.40;84.80
15900;DHT22;8048;50.644;6.184;2023-04-25T15:08:08;11.30;83.40
15900;DHT22;8048;50.644;6.184;2023-04-25T15:10:33;11.30;83.10
15900;DHT22;8048;50.644;6.184;2023-04-25T15:12:59;11.40;85.70
15900;DHT22;8048;50.644;6.184;2023-04-25T15:15:25;11.40;85.70
15900;DHT22;8048;50.644;6.184;2023-04-25T15:17:52;11.40;84.10
15900;DHT22;8048;50.644;6.184;2023-04-25T15:20:18;11.40;80.80
15900;DHT22;8048;50.644;6.184;2023-04-25T15:22:44;11.20;82.80
15900;DHT22;8048;50.644;6.184;2023-04-25T15:25:19;11.30;82.90
15900;DHT22;8048;50.644;6.184;2023-04-25T15:27:45;11.30;84.00
15900;DHT22;8048;50.644;6.184;2023-04-25T15:30:14;11.50;84.60
15900;DHT22;8048;50.644;6.184;2023-04-25T15:32:44;11.60;82.80
15900;DHT22;8048;50.644;6.184;2023-04-25T15:35:10;11.60;83.90
15900;DHT22;8048;50.644;6.184;2023-04-25T15:37:36;11.70;84.70
15900;DHT22;8048;50.644;6.184;2023-04-25T15:42:39;11.60;82.90
15900;DHT22;8048;50.644;6.184;2023-04-25T15:45:07;11.60;82.30
15900;DHT22;8048;50.644;6.184;2023-04-25T15:47:38;11.50;82.10
15900;DHT22;8048;50.644;6.184;2023-04-25T15:50:06;11.40;82.20
15900;DHT22;8048;50.644;6.184;2023-04-25T15:52:33;11.30;82.90
15900;DHT22;8048;50.644;6.184;2023-04-25T15:54:59;11.20;83.60
15900;DHT22;8048;50.644;6.184;2023-04-25T15:57:26;11.10;84.10
15900;DHT22;8048;50.644;6.184;2023-04-25T15:59:51;11.00;85.30
15900;DHT22;8048;50.644;6.184;2023-04-25T16:02:17;10.80;86.70
15900;DHT22;8048;50.644;6.184;2023-04-25T16:04:44;10.70;88.30
15900;DHT22;8048;50.644;6.184;2023-04-25T16:07:12;10.50;90.00
15900;DHT22;8048;50.644;6.184;2023-04-25T16:09:37;10.50;90.40
15900;DHT22;8048;50.644;6.184;2023-04-25T16:12:03;10.40;86.90